sensor_id;sensor_type;location;lat;lon;timestamp;P1;durP1;ratioP1;P2;durP2;ratioP2
8361;SDS011;4218;48.326;14.304;2022-07-10T07:58:07;2.03;;;1.93;;
8361;SDS011;4218;48.326;14.304;2022-07-10T08:00:32;1.83;;;1.70;;
8361;SDS011;4218;48.326;14.304;2022-07-10T08:02:58;2.00;;;1.90;;
8361;SDS011;4218;48.326;14.304;2022-07-10T08:05:25;1.57;;;1.50;;
8361;SDS011;4218;48.326;14.304;2022-07-10T08:07:52;1.50;;;1.40;;
8361;SDS011;4218;48.326;14.304;2022-07-10T08:10:20;1.57;;;1.50;;
8361;SDS011;4218;48.326;14.304;2022-07-10T08:12:48;1.37;;;1.30;;
8361;SDS011;4218;48.326;14.304;2022-07-10T08:15:14;1.20;;;1.20;;
8361;SDS011;4218;48.326;14.304;2022-07-10T08:17:41;2.17;;;1.67;;
8361;SDS011;4218;48.326;14.304;2022-07-10T08:20:09;2.00;;;1.90;;
8361;SDS011;4218;48.326;14.304;2022-07-10T08:22:36;1.67;;;1.57;;
8361;SDS011;4218;48.326;14.304;2022-07-10T08:25:02;1.50;;;1.50;;
8361;SDS011;4218;48.326;14.304;2022-07-10T08:27:28;1.60;;;1.50;;
8361;SDS011;4218;48.326;14.304;2022-07-10T08:29:54;1.27;;;1.27;;
8361;SDS011;4218;48.326;14.304;2022-07-10T08:32:19;1.97;;;1.87;;
8361;SDS011;4218;48.326;14.304;2022-07-10T08:34:45;2.10;;;2.00;;
8361;SDS011;4218;48.326;14.304;2022-07-10T08:37:10;1.73;;;1.63;;
8361;SDS011;4218;48.326;14.304;2022-07-10T08:39:36;1.43;;;1.40;;
8361;SDS011;4218;48.326;14.304;2022-07-10T08:42:04;2.07;;;1.70;;
8361;SDS011;4218;48.326;14.304;2022-07-10T08:44:29;1.63;;;1.30;;
8361;SDS011;4218;48.326;14.304;2022-07-10T08:46:55;1.43;;;1.43;;
8361;SDS011;4218;48.326;14.304;2022-07-10T08:49:23;4.40;;;1.40;;
8361;SDS011;4218;48.326;14.304;2022-07-10T08:54:31;1.60;;;1.50;;
8361;SDS011;4218;48.326;14.304;2022-07-10T08:56:58;1.33;;;1.33;;
8361;SDS011;4218;48.326;14.304;2022-07-10T08:59:25;1.30;;;1.30;;
8361;SDS011;4218;48.326;14.304;2022-07-10T09:01:51;1.17;;;1.17;;
8361;SDS011;4218;48.326;14.304;2022-07-10T09:04:18;1.57;;;1.47;;
8361;SDS011;4218;48.326;14.304;2022-07-10T09:06:44;1.30;;;1.20;;
8361;SDS011;4218;48.326;14.304;2022-07-10T09:09:10;1.00;;;1.00;;
8361;SDS011;4218;48.326;14.304;2022-07-10T09:11:37;1.60;;;1.53;;
8361;SDS011;4218;48.326;14.304;2022-07-10T09:14:05;1.03;;;1.00;;
8361;SDS011;4218;48.326;14.304;2022-07-10T09:16:37;0.80;;;0.80;;
8361;SDS011;4218;48.326;14.304;2022-07-10T09:19:26;2.53;;;1.00;;
8361;SDS011;4218;48.326;14.304;2022-07-10T09:21:52;1.00;;;1.00;;
8361;SDS011;4218;48.326;14.304;2022-07-10T09:24:19;1.43;;;0.80;;
8361;SDS011;4218;48.326;14.304;2022-07-10T09:26:48;1.33;;;0.90;;
8361;SDS011;4218;48.326;14.304;2022-07-10T09:29:26;1.00;;;1.00;;
8361;SDS011;4218;48.326;14.304;2022-07-10T09:31:55;1.00;;;1.00;;
8361;SDS011;4218;48.326;14.304;2022-07-10T09:34:39;0.90;;;0.90;;
8361;SDS011;4218;48.326;14.304;2022-07-10T09:37:23;1.43;;;0.87;;
8361;SDS011;4218;48.326;14.304;2022-07-10T09:39:59;0.90;;;0.90;;
8361;SDS011;4218;48.326;14.304;2022-07-10T09:42:33;1.20;;;1.20;;
8361;SDS011;4218;48.326;14.304;2022-07-10T09:45:22;0.90;;;0.90;;
8361;SDS011;4218;48.326;14.304;2022-07-10T09:47:59;0.83;;;0.83;;
8361;SDS011;4218;48.326;14.304;2022-07-10T09:55:32;0.87;;;0.87;;
8361;SDS011;4218;48.326;14.304;2022-07-10T10:00:26;0.90;;;0.90;;
8361;SDS011;4218;48.326;14.304;2022-07-10T10:02:58;0.77;;;0.77;;
8361;SDS011;4218;48.326;14.304;2022-07-10T10:05:37;0.70;;;0.70;;
8361;SDS011;4218;48.326;14.304;2022-07-10T10:08:17;0.83;;;0.83;;
8361;SDS011;4218;48.326;14.304;2022-07-10T10:10:51;1.17;;;0.83;;
8361;SDS011;4218;48.326;14.304;2022-07-10T10:13:20;0.90;;;0.90;;
8361;SDS011;4218;48.326;14.304;2022-07-10T10:15:48;0.60;;;0.60;;
8361;SDS011;4218;48.326;14.304;2022-07-10T10:18:16;1.60;;;1.13;;
8361;SDS011;4218;48.326;14.304;2022-07-10T10:20:46;2.27;;;0.73;;
8361;SDS011;4218;48.326;14.304;2022-07-10T10:23:13;0.70;;;0.70;;
8361;SDS011;4218;48.326;14.304;2022-07-10T10:25:42;5.83;;;0.70;;
8361;SDS011;4218;48.326;14.304;2022-07-10T10:28:08;0.73;;;0.73;;
8361;SDS011;4218;48.326;14.304;2022-07-10T10:30:38;6.43;;;1.00;;
8361;SDS011;4218;48.326;14.304;2022-07-10T10:33:54;0.57;;;0.57;;
8361;SDS011;4218;48.326;14.304;2022-07-10T10:35:57;0.77;;;0.77;;
8361;SDS011;4218;48.326;14.304;2022-07-10T10:38:23;1.03;;;0.73;;
8361;SDS011;4218;48.326;14.304;2022-07-10T10:40:49;0.87;;;0.87;;
8361;SDS011;4218;48.326;14.304;2022-07-10T10:43:22;1.50;;;0.90;;
8361;SDS011;4218;48.326;14.304;2022-07-10T10:45:49;0.90;;;0.90;;
8361;SDS011;4218;48.326;14.304;2022-07-10T10:48:17;0.63;;;0.63;;
8361;SDS011;4218;48.326;14.304;2022-07-10T10:50:47;0.80;;;0.80;;
8361;SDS011;4218;48.326;14.304;2022-07-10T10:53:18;0.97;;;0.70;;
8361;SDS011;4218;48.326;14.304;2022-07-10T10:58:25;0.90;;;0.90;;
8361;SDS011;4218;48.326;14.304;2022-07-10T11:00:51;1.97;;;0.83;;
8361;SDS011;4218;48.326;14.304;2022-07-10T11:03:21;0.67;;;0.67;;
8361;SDS011;4218;48.326;14.304;2022-07-10T11:05:49;0.70;;;0.70;;
8361;SDS011;4218;48.326;14.304;2022-07-10T11:08:34;0.70;;;0.70;;
8361;SDS011;4218;48.326;14.304;2022-07-10T11:11:01;0.60;;;0.60;;
8361;SDS011;4218;48.326;14.304;2022-07-10T11:13:27;0.80;;;0.80;;
8361;SDS011;4218;48.326;14.304;2022-07-10T11:15:56;0.60;;;0.60;;
8361;SDS011;4218;48.326;14.304;2022-07-10T11:18:23;1.07;;;0.90;;
8361;SDS011;4218;48.326;14.304;2022-07-10T11:20:51;0.87;;;0.87;;
8361;SDS011;4218;48.326;14.304;2022-07-10T11:26:23;1.13;;;0.80;;
8361;SDS011;4218;48.326;14.304;2022-07-10T11:28:55;2.07;;;0.60;;
8361;SDS011;4218;48.326;14.304;2022-07-10T11:31:27;0.67;;;0.60;;
8361;SDS011;4218;48.326;14.304;2022-07-10T11:33:53;0.47;;;0.47;;
8361;SDS011;4218;48.326;14.304;2022-07-10T11:36:20;0.73;;;0.73;;
8361;SDS011;4218;48.326;14.304;2022-07-10T11:38:58;0.93;;;0.73;;
8361;SDS011;4218;48.326;14.304;2022-07-10T11:41:25;0.60;;;0.60;;
8361;SDS011;4218;48.326;14.304;2022-07-10T11:43:52;0.50;;;0.50;;
8361;SDS011;4218;48.326;14.304;2022-07-10T11:46:19;1.80;;;1.00;;
8361;SDS011;4218;48.326;14.304;2022-07-10T11:48:47;0.60;;;0.60;;
8361;SDS011;4218;48.326;14.304;2022-07-10T11:51:22;1.13;;;1.03;;
8361;SDS011;4218;48.326;14.304;2022-07-10T11:54:02;0.90;;;0.80;;
8361;SDS011;4218;48.326;14.304;2022-07-10T11:56:32;1.13;;;1.03;;
8361;SDS011;4218;48.326;14.304;2022-07-10T11:59:04;1.00;;;1.00;;
8361;SDS011;4218;48.326;14.304;2022-07-10T12:01:47;0.87;;;0.87;;
8361;SDS011;4218;48.326;14.304;2022-07-10T12:04:14;0.80;;;0.80;;
8361;SDS011;4218;48.326;14.304;2022-07-10T12:06:45;0.53;;;0.53;;
8361;SDS011;4218;48.326;14.304;2022-07-10T12:09:13;0.90;;;0.70;;
8361;SDS011;4218;48.326;14.304;2022-07-10T12:11:40;0.93;;;0.90;;
8361;SDS011;4218;48.326;14.304;2022-07-10T12:14:11;0.60;;;0.60;;
8361;SDS011;4218;48.326;14.304;2022-07-10T12:16:40;1.17;;;0.67;;
8361;SDS011;4218;48.326;14.304;2022-07-10T12:19:07;0.77;;;0.77;;
8361;SDS011;4218;48.326;14.304;2022-07-10T12:21:34;0.67;;;0.50;;
8361;SDS011;4218;48.326;14.304;2022-07-10T12:24:00;0.50;;;0.50;;
8361;SDS011;4218;48.326;14.304;2022-07-10T12:26:33;0.50;;;0.50;;
8361;SDS011;4218;48.326;14.304;2022-07-10T12:29:25;0.53;;;0.53;;
8361;SDS011;4218;48.326;14.304;2022-07-10T12:31:55;0.60;;;0.60;;
8361;SDS011;4218;48.326;14.304;2022-07-10T12:37:05;0.60;;;0.60;;
8361;SDS011;4218;48.326;14.304;2022-07-10T12:39:34;0.60;;;0.60;;
8361;SDS011;4218;48.326;14.304;2022-07-10T12:42:06;0.90;;;0.80;;
8361;SDS011;4218;48.326;14.304;2022-07-10T12:44:45;1.80;;;0.80;;
8361;SDS011;4218;48.326;14.304;2022-07-10T12:49:47;0.47;;;0.47;;
8361;SDS011;4218;48.326;14.304;2022-07-10T12:52:19;0.50;;;0.50;;
8361;SDS011;4218;48.326;14.304;2022-07-10T12:54:48;0.60;;;0.60;;
8361;SDS011;4218;48.326;14.304;2022-07-10T12:57:14;0.70;;;0.57;;
8361;SDS011;4218;48.326;14.304;2022-07-10T12:59:39;0.50;;;0.50;;
8361;SDS011;4218;48.326;14.304;2022-07-10T13:02:17;0.53;;;0.53;;
8361;SDS011;4218;48.326;14.304;2022-07-10T13:04:56;0.80;;;0.80;;
8361;SDS011;4218;48.326;14.304;2022-07-10T13:07:32;0.83;;;0.73;;
8361;SDS011;4218;48.326;14.304;2022-07-10T13:09:59;0.63;;;0.63;;
8361;SDS011;4218;48.326;14.304;2022-07-10T13:12:28;0.40;;;0.40;;
8361;SDS011;4218;48.326;14.304;2022-07-10T13:14:54;0.60;;;0.60;;
8361;SDS011;4218;48.326;14.304;2022-07-10T13:17:20;0.50;;;0.50;;
8361;SDS011;4218;48.326;14.304;2022-07-10T13:19:45;1.17;;;0.80;;
8361;SDS011;4218;48.326;14.304;2022-07-10T13:22:10;0.40;;;0.40;;
8361;SDS011;4218;48.326;14.304;2022-07-10T13:24:36;0.60;;;0.60;;
8361;SDS011;4218;48.326;14.304;2022-07-10T13:27:01;0.60;;;0.60;;
8361;SDS011;4218;48.326;14.304;2022-07-10T13:29:27;0.50;;;0.50;;
8361;SDS011;4218;48.326;14.304;2022-07-10T13:31:52;0.30;;;0.30;;
8361;SDS011;4218;48.326;14.304;2022-07-10T13:34:18;0.90;;;0.77;;
8361;SDS011;4218;48.326;14.304;2022-07-10T13:36:43;0.57;;;0.57;;
8361;SDS011;4218;48.326;14.304;2022-07-10T13:39:08;0.93;;;0.67;;
8361;SDS011;4218;48.326;14.304;2022-07-10T13:41:34;0.60;;;0.60;;
8361;SDS011;4218;48.326;14.304;2022-07-10T13:43:59;0.60;;;0.60;;
8361;SDS011;4218;48.326;14.304;2022-07-10T13:46:26;0.87;;;0.63;;
8361;SDS011;4218;48.326;14.304;2022-07-10T13:48:52;0.67;;;0.60;;
8361;SDS011;4218;48.326;14.304;2022-07-10T13:51:18;0.57;;;0.57;;
8361;SDS011;4218;48.326;14.304;2022-07-10T13:53:43;0.50;;;0.43;;
8361;SDS011;4218;48.326;14.304;2022-07-10T13:56:08;0.50;;;0.43;;
8361;SDS011;4218;48.326;14.304;2022-07-10T13:58:34;0.47;;;0.47;;
8361;SDS011;4218;48.326;14.304;2022-07-10T14:01:01;0.50;;;0.50;;
8361;SDS011;4218;48.326;14.304;2022-07-10T14:03:28;0.37;;;0.37;;
8361;SDS011;4218;48.326;14.304;2022-07-10T14:05:54;0.50;;;0.50;;
8361;SDS011;4218;48.326;14.304;2022-07-10T14:08:20;0.53;;;0.53;;
8361;SDS011;4218;48.326;14.304;2022-07-10T14:10:45;0.40;;;0.40;;
8361;SDS011;4218;48.326;14.304;2022-07-10T14:13:10;0.60;;;0.60;;
8361;SDS011;4218;48.326;14.304;2022-07-10T14:15:36;0.40;;;0.40;;
8361;SDS011;4218;48.326;14.304;2022-07-10T14:18:01;0.60;;;0.60;;
8361;SDS011;4218;48.326;14.304;2022-07-10T14:20:28;0.40;;;0.40;;
8361;SDS011;4218;48.326;14.304;2022-07-10T14:23:14;0.60;;;0.60;;
8361;SDS011;4218;48.326;14.304;2022-07-10T14:25:39;0.87;;;0.70;;
8361;SDS011;4218;48.326;14.304;2022-07-10T14:28:05;0.93;;;0.83;;
8361;SDS011;4218;48.326;14.304;2022-07-10T14:30:30;7.63;;;3.27;;
8361;SDS011;4218;48.326;14.304;2022-07-10T14:32:56;21.07;;;9.00;;
8361;SDS011;4218;48.326;14.304;2022-07-10T14:35:21;7.33;;;3.90;;
8361;SDS011;4218;48.326;14.304;2022-07-10T14:37:46;2.93;;;2.43;;
8361;SDS011;4218;48.326;14.304;2022-07-10T14:40:12;0.50;;;0.50;;
8361;SDS011;4218;48.326;14.304;2022-07-10T14:42:37;0.80;;;0.80;;
8361;SDS011;4218;48.326;14.304;2022-07-10T14:45:04;0.63;;;0.50;;
8361;SDS011;4218;48.326;14.304;2022-07-10T14:47:30;0.50;;;0.50;;
8361;SDS011;4218;48.326;14.304;2022-07-10T14:49:58;1.27;;;1.23;;
8361;SDS011;4218;48.326;14.304;2022-07-10T14:52:23;0.67;;;0.67;;
8361;SDS011;4218;48.326;14.304;2022-07-10T14:54:51;1.53;;;1.20;;
8361;SDS011;4218;48.326;14.304;2022-07-10T14:57:16;0.40;;;0.40;;
8361;SDS011;4218;48.326;14.304;2022-07-10T14:59:42;0.50;;;0.50;;
8361;SDS011;4218;48.326;14.304;2022-07-10T15:02:07;1.47;;;0.80;;
8361;SDS011;4218;48.326;14.304;2022-07-10T15:04:32;0.80;;;0.80;;
8361;SDS011;4218;48.326;14.304;2022-07-10T15:06:58;0.80;;;0.80;;
8361;SDS011;4218;48.326;14.304;2022-07-10T15:09:23;0.50;;;0.50;;
8361;SDS011;4218;48.326;14.304;2022-07-10T15:11:49;0.30;;;0.30;;
8361;SDS011;4218;48.326;14.304;2022-07-10T15:14:14;0.40;;;0.40;;
8361;SDS011;4218;48.326;14.304;2022-07-10T15:16:39;0.40;;;0.40;;
8361;SDS011;4218;48.326;14.304;2022-07-10T15:19:05;0.30;;;0.30;;
8361;SDS011;4218;48.326;14.304;2022-07-10T15:21:31;0.50;;;0.50;;
8361;SDS011;4218;48.326;14.304;2022-07-10T15:23:57;0.70;;;0.70;;
8361;SDS011;4218;48.326;14.304;2022-07-10T15:26:22;1.00;;;0.73;;
8361;SDS011;4218;48.326;14.304;2022-07-10T15:28:48;0.43;;;0.43;;
8361;SDS011;4218;48.326;14.304;2022-07-10T15:31:13;0.40;;;0.40;;
8361;SDS011;4218;48.326;14.304;2022-07-10T15:33:38;0.60;;;0.60;;
8361;SDS011;4218;48.326;14.304;2022-07-10T15:36:09;0.43;;;0.43;;
8361;SDS011;4218;48.326;14.304;2022-07-10T15:38:35;0.50;;;0.50;;
8361;SDS011;4218;48.326;14.304;2022-07-10T15:41:00;0.73;;;0.40;;
8361;SDS011;4218;48.326;14.304;2022-07-10T15:43:26;0.40;;;0.40;;
8361;SDS011;4218;48.326;14.304;2022-07-10T15:45:54;0.40;;;0.40;;
8361;SDS011;4218;48.326;14.304;2022-07-10T15:48:19;0.40;;;0.40;;
8361;SDS011;4218;48.326;14.304;2022-07-10T15:50:46;0.50;;;0.50;;
8361;SDS011;4218;48.326;14.304;2022-07-10T15:53:11;0.60;;;0.60;;
8361;SDS011;4218;48.326;14.304;2022-07-10T15:55:37;0.60;;;0.60;;
8361;SDS011;4218;48.326;14.304;2022-07-10T15:58:03;1.77;;;0.70;;
8361;SDS011;4218;48.326;14.304;2022-07-10T16:00:28;1.17;;;0.57;;
8361;SDS011;4218;48.326;14.304;2022-07-10T16:02:54;0.57;;;0.57;;
8361;SDS011;4218;48.326;14.304;2022-07-10T16:05:26;0.40;;;0.40;;
8361;SDS011;4218;48.326;14.304;2022-07-10T16:07:51;0.33;;;0.33;;
8361;SDS011;4218;48.326;14.304;2022-07-10T16:10:17;0.57;;;0.57;;
8361;SDS011;4218;48.326;14.304;2022-07-10T16:12:43;0.50;;;0.50;;
8361;SDS011;4218;48.326;14.304;2022-07-10T16:15:09;0.33;;;0.33;;
8361;SDS011;4218;48.326;14.304;2022-07-10T16:17:34;0.70;;;0.70;;
8361;SDS011;4218;48.326;14.304;2022-07-10T16:20:00;0.60;;;0.60;;
8361;SDS011;4218;48.326;14.304;2022-07-10T16:22:25;0.40;;;0.40;;
8361;SDS011;4218;48.326;14.304;2022-07-10T16:24:51;0.80;;;0.60;;
8361;SDS011;4218;48.326;14.304;2022-07-10T16:27:35;0.60;;;0.60;;
8361;SDS011;4218;48.326;14.304;2022-07-10T16:30:00;0.60;;;0.53;;
8361;SDS011;4218;48.326;14.304;2022-07-10T16:32:25;0.40;;;0.40;;
8361;SDS011;4218;48.326;14.304;2022-07-10T16:34:51;0.57;;;0.57;;
8361;SDS011;4218;48.326;14.304;2022-07-10T16:37:17;0.97;;;0.97;;
8361;SDS011;4218;48.326;14.304;2022-07-10T16:39:46;0.50;;;0.50;;
8361;SDS011;4218;48.326;14.304;2022-07-10T16:42:11;0.43;;;0.43;;
8361;SDS011;4218;48.326;14.304;2022-07-10T16:44:37;0.50;;;0.50;;
8361;SDS011;4218;48.326;14.304;2022-07-10T16:47:02;0.40;;;0.40;;
8361;SDS011;4218;48.326;14.304;2022-07-10T16:49:28;0.50;;;0.50;;
8361;SDS011;4218;48.326;14.304;2022-07-10T16:51:53;0.40;;;0.40;;
8361;SDS011;4218;48.326;14.304;2022-07-10T16:54:18;0.70;;;0.60;;
8361;SDS011;4218;48.326;14.304;2022-07-10T16:56:44;0.70;;;0.70;;
8361;SDS011;4218;48.326;14.304;2022-07-10T16:59:11;0.40;;;0.40;;
8361;SDS011;4218;48.326;14.304;2022-07-10T17:01:36;0.40;;;0.40;;
8361;SDS011;4218;48.326;14.304;2022-07-10T17:04:02;0.70;;;0.70;;
8361;SDS011;4218;48.326;14.304;2022-07-10T17:06:27;0.40;;;0.40;;
8361;SDS011;4218;48.326;14.304;2022-07-10T17:08:53;0.50;;;0.50;;
8361;SDS011;4218;48.326;14.304;2022-07-10T17:11:18;0.50;;;0.50;;
8361;SDS011;4218;48.326;14.304;2022-07-10T17:13:44;0.40;;;0.40;;
8361;SDS011;4218;48.326;14.304;2022-07-10T17:16:10;0.43;;;0.43;;
8361;SDS011;4218;48.326;14.304;2022-07-10T17:18:35;0.63;;;0.63;;
8361;SDS011;4218;48.326;14.304;2022-07-10T17:21:01;0.40;;;0.40;;
8361;SDS011;4218;48.326;14.304;2022-07-10T17:23:26;0.83;;;0.83;;
8361;SDS011;4218;48.326;14.304;2022-07-10T17:25:51;0.60;;;0.60;;
8361;SDS011;4218;48.326;14.304;2022-07-10T17:28:17;0.87;;;0.87;;
8361;SDS011;4218;48.326;14.304;2022-07-10T17:30:42;1.47;;;0.50;;
8361;SDS011;4218;48.326;14.304;2022-07-10T17:33:09;0.40;;;0.40;;
8361;SDS011;4218;48.326;14.304;2022-07-10T17:35:35;0.40;;;0.40;;
8361;SDS011;4218;48.326;14.304;2022-07-10T17:38:02;0.53;;;0.53;;
8361;SDS011;4218;48.326;14.304;2022-07-10T17:40:27;0.43;;;0.43;;
8361;SDS011;4218;48.326;14.304;2022-07-10T17:42:52;0.50;;;0.50;;
8361;SDS011;4218;48.326;14.304;2022-07-10T17:45:18;0.50;;;0.50;;
8361;SDS011;4218;48.326;14.304;2022-07-10T17:47:44;0.60;;;0.50;;
8361;SDS011;4218;48.326;14.304;2022-07-10T17:50:10;0.50;;;0.50;;
8361;SDS011;4218;48.326;14.304;2022-07-10T17:52:35;0.50;;;0.50;;
8361;SDS011;4218;48.326;14.304;2022-07-10T17:55:02;1.30;;;0.70;;
8361;SDS011;4218;48.326;14.304;2022-07-10T17:57:27;0.70;;;0.70;;
8361;SDS011;4218;48.326;14.304;2022-07-10T17:59:53;0.60;;;0.60;;
8361;SDS011;4218;48.326;14.304;2022-07-10T18:02:18;0.73;;;0.50;;
8361;SDS011;4218;48.326;14.304;2022-07-10T18:04:44;0.50;;;0.50;;
8361;SDS011;4218;48.326;14.304;2022-07-10T18:07:09;0.63;;;0.63;;
8361;SDS011;4218;48.326;14.304;2022-07-10T18:09:35;0.40;;;0.40;;
8361;SDS011;4218;48.326;14.304;2022-07-10T18:12:00;0.40;;;0.40;;
8361;SDS011;4218;48.326;14.304;2022-07-10T18:14:26;0.57;;;0.57;;
8361;SDS011;4218;48.326;14.304;2022-07-10T18:16:51;0.47;;;0.47;;
8361;SDS011;4218;48.326;14.304;2022-07-10T18:19:16;0.40;;;0.40;;
8361;SDS011;4218;48.326;14.304;2022-07-10T18:21:43;0.50;;;0.50;;
8361;SDS011;4218;48.326;14.304;2022-07-10T18:24:09;0.50;;;0.50;;
8361;SDS011;4218;48.326;14.304;2022-07-10T18:26:35;0.50;;;0.50;;
8361;SDS011;4218;48.326;14.304;2022-07-10T18:29:01;0.50;;;0.50;;
8361;SDS011;4218;48.326;14.304;2022-07-10T18:31:27;0.40;;;0.40;;
8361;SDS011;4218;48.326;14.304;2022-07-10T18:33:53;0.40;;;0.40;;
8361;SDS011;4218;48.326;14.304;2022-07-10T18:36:37;0.50;;;0.50;;
8361;SDS011;4218;48.326;14.304;2022-07-10T18:39:04;0.50;;;0.50;;
8361;SDS011;4218;48.326;14.304;2022-07-10T18:41:32;0.40;;;0.40;;
8361;SDS011;4218;48.326;14.304;2022-07-10T18:43:58;0.43;;;0.43;;
8361;SDS011;4218;48.326;14.304;2022-07-10T18:46:23;1.03;;;0.67;;
8361;SDS011;4218;48.326;14.304;2022-07-10T18:48:49;3.13;;;0.60;;
8361;SDS011;4218;48.326;14.304;2022-07-10T18:51:15;0.60;;;0.60;;
8361;SDS011;4218;48.326;14.304;2022-07-10T18:53:40;0.70;;;0.70;;
8361;SDS011;4218;48.326;14.304;2022-07-10T18:56:06;1.30;;;1.03;;
8361;SDS011;4218;48.326;14.304;2022-07-10T18:58:31;2.27;;;0.67;;
8361;SDS011;4218;48.326;14.304;2022-07-10T19:00:57;0.77;;;0.70;;
8361;SDS011;4218;48.326;14.304;2022-07-10T19:03:22;0.63;;;0.63;;
8361;SDS011;4218;48.326;14.304;2022-07-10T19:05:47;0.63;;;0.63;;
8361;SDS011;4218;48.326;14.304;2022-07-10T19:08:13;0.87;;;0.60;;
8361;SDS011;4218;48.326;14.304;2022-07-10T19:10:39;0.60;;;0.60;;
8361;SDS011;4218;48.326;14.304;2022-07-10T19:13:05;0.53;;;0.53;;
8361;SDS011;4218;48.326;14.304;2022-07-10T19:15:30;0.67;;;0.60;;
8361;SDS011;4218;48.326;14.304;2022-07-10T19:17:55;0.93;;;0.60;;
8361;SDS011;4218;48.326;14.304;2022-07-10T19:20:23;0.90;;;0.90;;
8361;SDS011;4218;48.326;14.304;2022-07-10T19:22:48;0.63;;;0.63;;
8361;SDS011;4218;48.326;14.304;2022-07-10T19:25:14;0.60;;;0.60;;
8361;SDS011;4218;48.326;14.304;2022-07-10T19:27:40;0.60;;;0.60;;
8361;SDS011;4218;48.326;14.304;2022-07-10T19:30:06;0.50;;;0.50;;
8361;SDS011;4218;48.326;14.304;2022-07-10T19:32:35;0.67;;;0.67;;
8361;SDS011;4218;48.326;14.304;2022-07-10T19:35:01;0.87;;;0.70;;
8361;SDS011;4218;48.326;14.304;2022-07-10T19:37:26;0.60;;;0.60;;
8361;SDS011;4218;48.326;14.304;2022-07-10T19:39:52;0.80;;;0.80;;
8361;SDS011;4218;48.326;14.304;2022-07-10T19:42:17;1.17;;;0.63;;
8361;SDS011;4218;48.326;14.304;2022-07-10T19:44:42;0.50;;;0.50;;
8361;SDS011;4218;48.326;14.304;2022-07-10T19:47:08;0.87;;;0.60;;
8361;SDS011;4218;48.326;14.304;2022-07-10T19:49:33;0.60;;;0.60;;
8361;SDS011;4218;48.326;14.304;2022-07-10T19:51:59;0.70;;;0.70;;
8361;SDS011;4218;48.326;14.304;2022-07-10T19:54:25;0.67;;;0.67;;
8361;SDS011;4218;48.326;14.304;2022-07-10T19:56:50;0.70;;;0.70;;
8361;SDS011;4218;48.326;14.304;2022-07-10T19:59:16;0.50;;;0.50;;
8361;SDS011;4218;48.326;14.304;2022-07-10T20:01:43;0.60;;;0.60;;
8361;SDS011;4218;48.326;14.304;2022-07-10T20:04:09;0.47;;;0.47;;
8361;SDS011;4218;48.326;14.304;2022-07-10T20:06:36;0.70;;;0.70;;
8361;SDS011;4218;48.326;14.304;2022-07-10T20:09:02;0.87;;;0.87;;
8361;SDS011;4218;48.326;14.304;2022-07-10T20:11:27;0.40;;;0.40;;
8361;SDS011;4218;48.326;14.304;2022-07-10T20:13:53;0.50;;;0.50;;
8361;SDS011;4218;48.326;14.304;2022-07-10T20:16:18;0.67;;;0.67;;
8361;SDS011;4218;48.326;14.304;2022-07-10T20:18:44;1.50;;;0.70;;
8361;SDS011;4218;48.326;14.304;2022-07-10T20:21:09;0.50;;;0.50;;
8361;SDS011;4218;48.326;14.304;2022-07-10T20:23:35;0.80;;;0.80;;
8361;SDS011;4218;48.326;14.304;2022-07-10T20:26:01;0.73;;;0.73;;
8361;SDS011;4218;48.326;14.304;2022-07-10T20:28:27;0.53;;;0.53;;
8361;SDS011;4218;48.326;14.304;2022-07-10T20:30:52;1.10;;;0.70;;
8361;SDS011;4218;48.326;14.304;2022-07-10T20:33:17;0.60;;;0.60;;
8361;SDS011;4218;48.326;14.304;2022-07-10T20:35:43;0.60;;;0.60;;
8361;SDS011;4218;48.326;14.304;2022-07-10T20:38:08;0.70;;;0.70;;
8361;SDS011;4218;48.326;14.304;2022-07-10T20:40:33;1.03;;;1.03;;
8361;SDS011;4218;48.326;14.304;2022-07-10T20:42:59;0.77;;;0.40;;
8361;SDS011;4218;48.326;14.304;2022-07-10T20:45:26;0.43;;;0.43;;
8361;SDS011;4218;48.326;14.304;2022-07-10T20:47:51;0.60;;;0.60;;
8361;SDS011;4218;48.326;14.304;2022-07-10T20:50:17;0.60;;;0.60;;
8361;SDS011;4218;48.326;14.304;2022-07-10T20:52:43;0.50;;;0.50;;
8361;SDS011;4218;48.326;14.304;2022-07-10T20:55:10;0.37;;;0.37;;
8361;SDS011;4218;48.326;14.304;2022-07-10T20:57:36;0.67;;;0.67;;
8361;SDS011;4218;48.326;14.304;2022-07-10T21:00:04;0.60;;;0.60;;
8361;SDS011;4218;48.326;14.304;2022-07-10T21:02:31;0.70;;;0.70;;
8361;SDS011;4218;48.326;14.304;2022-07-10T21:04:56;0.53;;;0.50;;
8361;SDS011;4218;48.326;14.304;2022-07-10T21:07:21;0.70;;;0.70;;
8361;SDS011;4218;48.326;14.304;2022-07-10T21:09:47;0.70;;;0.70;;
8361;SDS011;4218;48.326;14.304;2022-07-10T21:12:14;0.40;;;0.40;;
8361;SDS011;4218;48.326;14.304;2022-07-10T21:14:41;0.50;;;0.50;;
8361;SDS011;4218;48.326;14.304;2022-07-10T21:17:06;0.50;;;0.50;;
8361;SDS011;4218;48.326;14.304;2022-07-10T21:19:32;0.60;;;0.60;;
8361;SDS011;4218;48.326;14.304;2022-07-10T21:21:57;0.70;;;0.70;;
8361;SDS011;4218;48.326;14.304;2022-07-10T21:24:23;0.73;;;0.57;;
8361;SDS011;4218;48.326;14.304;2022-07-10T21:26:49;3.23;;;0.43;;
8361;SDS011;4218;48.326;14.304;2022-07-10T21:29:14;0.40;;;0.40;;
8361;SDS011;4218;48.326;14.304;2022-07-10T21:31:40;2.13;;;0.60;;
8361;SDS011;4218;48.326;14.304;2022-07-10T21:34:05;0.53;;;0.40;;
8361;SDS011;4218;48.326;14.304;2022-07-10T21:36:30;0.50;;;0.50;;
8361;SDS011;4218;48.326;14.304;2022-07-10T21:38:56;0.77;;;0.63;;
8361;SDS011;4218;48.326;14.304;2022-07-10T21:41:22;0.67;;;0.50;;
8361;SDS011;4218;48.326;14.304;2022-07-10T21:43:47;0.37;;;0.37;;
8361;SDS011;4218;48.326;14.304;2022-07-10T21:46:13;0.60;;;0.60;;
8361;SDS011;4218;48.326;14.304;2022-07-10T21:48:38;0.40;;;0.40;;
8361;SDS011;4218;48.326;14.304;2022-07-10T21:51:04;0.93;;;0.53;;
8361;SDS011;4218;48.326;14.304;2022-07-10T21:53:29;0.37;;;0.37;;
8361;SDS011;4218;48.326;14.304;2022-07-10T21:55:54;0.40;;;0.40;;
8361;SDS011;4218;48.326;14.304;2022-07-10T21:58:20;0.40;;;0.40;;
8361;SDS011;4218;48.326;14.304;2022-07-10T22:00:45;0.40;;;0.40;;
8361;SDS011;4218;48.326;14.304;2022-07-10T22:03:11;0.83;;;0.57;;
8361;SDS011;4218;48.326;14.304;2022-07-10T22:05:36;0.40;;;0.40;;
8361;SDS011;4218;48.326;14.304;2022-07-10T22:08:03;0.57;;;0.57;;
8361;SDS011;4218;48.326;14.304;2022-07-10T22:10:30;0.40;;;0.40;;
8361;SDS011;4218;48.326;14.304;2022-07-10T22:12:55;0.40;;;0.40;;
8361;SDS011;4218;48.326;14.304;2022-07-10T22:15:20;0.50;;;0.50;;
8361;SDS011;4218;48.326;14.304;2022-07-10T22:17:46;0.47;;;0.47;;
8361;SDS011;4218;48.326;14.304;2022-07-10T22:20:11;0.40;;;0.40;;
8361;SDS011;4218;48.326;14.304;2022-07-10T22:22:40;0.40;;;0.40;;
8361;SDS011;4218;48.326;14.304;2022-07-10T22:25:07;0.40;;;0.40;;
8361;SDS011;4218;48.326;14.304;2022-07-10T22:27:34;0.40;;;0.40;;
8361;SDS011;4218;48.326;14.304;2022-07-10T22:29:59;0.30;;;0.30;;
8361;SDS011;4218;48.326;14.304;2022-07-10T22:32:25;0.40;;;0.40;;
8361;SDS011;4218;48.326;14.304;2022-07-10T22:34:51;0.67;;;0.50;;
8361;SDS011;4218;48.326;14.304;2022-07-10T22:37:17;0.63;;;0.63;;
8361;SDS011;4218;48.326;14.304;2022-07-10T22:39:42;0.60;;;0.60;;
8361;SDS011;4218;48.326;14.304;2022-07-10T22:42:07;0.60;;;0.60;;
8361;SDS011;4218;48.326;14.304;2022-07-10T22:44:33;0.47;;;0.47;;
8361;SDS011;4218;48.326;14.304;2022-07-10T22:46:58;0.63;;;0.63;;
8361;SDS011;4218;48.326;14.304;2022-07-10T22:49:23;0.40;;;0.40;;
8361;SDS011;4218;48.326;14.304;2022-07-10T22:51:49;0.40;;;0.40;;
8361;SDS011;4218;48.326;14.304;2022-07-10T22:54:14;0.30;;;0.30;;
8361;SDS011;4218;48.326;14.304;2022-07-10T22:56:40;0.40;;;0.40;;
8361;SDS011;4218;48.326;14.304;2022-07-10T22:59:05;0.40;;;0.40;;
8361;SDS011;4218;48.326;14.304;2022-07-10T23:01:32;0.50;;;0.50;;
8361;SDS011;4218;48.326;14.304;2022-07-10T23:03:58;0.43;;;0.43;;
8361;SDS011;4218;48.326;14.304;2022-07-10T23:06:23;0.40;;;0.40;;
8361;SDS011;4218;48.326;14.304;2022-07-10T23:08:49;0.43;;;0.43;;
8361;SDS011;4218;48.326;14.304;2022-07-10T23:11:15;0.50;;;0.50;;
8361;SDS011;4218;48.326;14.304;2022-07-10T23:13:40;0.40;;;0.40;;
8361;SDS011;4218;48.326;14.304;2022-07-10T23:16:06;0.50;;;0.50;;
8361;SDS011;4218;48.326;14.304;2022-07-10T23:18:31;1.07;;;0.60;;